sensor_id;sensor_type;location;lat;lon;timestamp;P1;durP1;ratioP1;P2;durP2;ratioP2
75261;SDS011;63859;51.064;4.580;2023-04-30T00:01:42;12.10;;;5.37;;
75261;SDS011;63859;51.064;4.580;2023-04-30T00:04:08;10.97;;;5.70;;
75261;SDS011;63859;51.064;4.580;2023-04-30T00:06:33;8.80;;;5.70;;
75261;SDS011;63859;51.064;4.580;2023-04-30T00:08:59;9.80;;;5.70;;
75261;SDS011;63859;51.064;4.580;2023-04-30T00:11:25;9.63;;;5.57;;
75261;SDS011;63859;51.064;4.580;2023-04-30T00:13:50;10.10;;;5.13;;
75261;SDS011;63859;51.064;4.580;2023-04-30T00:16:17;9.33;;;5.17;;
75261;SDS011;63859;51.064;4.580;2023-04-30T00:18:42;11.07;;;5.70;;
75261;SDS011;63859;51.064;4.580;2023-04-30T00:21:08;9.00;;;4.97;;
75261;SDS011;63859;51.064;4.580;2023-04-30T00:23:34;10.17;;;5.40;;
75261;SDS011;63859;51.064;4.580;2023-04-30T00:26:00;7.23;;;4.67;;
75261;SDS011;63859;51.064;4.580;2023-04-30T00:28:25;8.30;;;5.03;;
75261;SDS011;63859;51.064;4.580;2023-04-30T00:30:51;12.30;;;5.77;;
75261;SDS011;63859;51.064;4.580;2023-04-30T00:33:17;7.30;;;5.20;;
75261;SDS011;63859;51.064;4.580;2023-04-30T00:35:43;8.40;;;5.30;;
75261;SDS011;63859;51.064;4.580;2023-04-30T00:38:09;12.33;;;5.43;;
75261;SDS011;63859;51.064;4.580;2023-04-30T00:40:34;9.87;;;5.77;;
75261;SDS011;63859;51.064;4.580;2023-04-30T00:43:02;11.07;;;5.70;;
75261;SDS011;63859;51.064;4.580;2023-04-30T00:45:28;8.27;;;5.90;;
75261;SDS011;63859;51.064;4.580;2023-04-30T00:47:53;7.67;;;5.53;;
75261;SDS011;63859;51.064;4.580;2023-04-30T00:50:19;9.07;;;5.60;;
75261;SDS011;63859;51.064;4.580;2023-04-30T00:52:45;9.27;;;6.10;;
75261;SDS011;63859;51.064;4.580;2023-04-30T00:55:11;8.37;;;5.60;;
75261;SDS011;63859;51.064;4.580;2023-04-30T00:57:37;10.87;;;5.93;;
75261;SDS011;63859;51.064;4.580;2023-04-30T01:00:04;10.70;;;5.93;;
75261;SDS011;63859;51.064;4.580;2023-04-30T01:02:34;9.13;;;5.73;;
75261;SDS011;63859;51.064;4.580;2023-04-30T01:05:01;9.23;;;5.37;;
75261;SDS011;63859;51.064;4.580;2023-04-30T01:07:28;11.50;;;5.70;;
75261;SDS011;63859;51.064;4.580;2023-04-30T01:09:54;8.37;;;5.63;;
75261;SDS011;63859;51.064;4.580;2023-04-30T01:12:21;11.13;;;6.23;;
75261;SDS011;63859;51.064;4.580;2023-04-30T01:20:31;11.80;;;6.47;;
75261;SDS011;63859;51.064;4.580;2023-04-30T01:23:17;12.67;;;6.40;;
75261;SDS011;63859;51.064;4.580;2023-04-30T01:25:52;9.07;;;6.10;;
75261;SDS011;63859;51.064;4.580;2023-04-30T01:28:33;11.63;;;6.33;;
75261;SDS011;63859;51.064;4.580;2023-04-30T01:31:00;9.50;;;6.40;;
75261;SDS011;63859;51.064;4.580;2023-04-30T01:33:26;9.67;;;5.90;;
75261;SDS011;63859;51.064;4.580;2023-04-30T01:49:41;10.93;;;6.63;;
75261;SDS011;63859;51.064;4.580;2023-04-30T01:55:00;12.20;;;6.40;;
75261;SDS011;63859;51.064;4.580;2023-04-30T01:57:42;9.80;;;6.47;;
75261;SDS011;63859;51.064;4.580;2023-04-30T02:00:19;15.10;;;7.07;;
75261;SDS011;63859;51.064;4.580;2023-04-30T02:02:45;10.23;;;6.77;;
75261;SDS011;63859;51.064;4.580;2023-04-30T02:05:10;13.70;;;7.50;;
75261;SDS011;63859;51.064;4.580;2023-04-30T02:10:06;10.97;;;7.20;;
75261;SDS011;63859;51.064;4.580;2023-04-30T02:12:33;13.57;;;7.53;;
75261;SDS011;63859;51.064;4.580;2023-04-30T02:14:59;13.87;;;7.77;;
75261;SDS011;63859;51.064;4.580;2023-04-30T02:17:25;14.33;;;8.23;;
75261;SDS011;63859;51.064;4.580;2023-04-30T02:19:50;14.43;;;7.37;;
75261;SDS011;63859;51.064;4.580;2023-04-30T02:22:16;12.57;;;7.30;;
75261;SDS011;63859;51.064;4.580;2023-04-30T02:24:42;11.83;;;7.70;;
75261;SDS011;63859;51.064;4.580;2023-04-30T02:27:07;11.00;;;7.90;;
75261;SDS011;63859;51.064;4.580;2023-04-30T02:29:33;17.50;;;7.77;;
75261;SDS011;63859;51.064;4.580;2023-04-30T02:31:58;13.17;;;7.60;;
75261;SDS011;63859;51.064;4.580;2023-04-30T02:34:24;11.70;;;7.50;;
75261;SDS011;63859;51.064;4.580;2023-04-30T02:36:50;14.53;;;8.47;;
75261;SDS011;63859;51.064;4.580;2023-04-30T02:39:17;12.47;;;8.17;;
75261;SDS011;63859;51.064;4.580;2023-04-30T02:41:43;11.80;;;8.20;;
75261;SDS011;63859;51.064;4.580;2023-04-30T02:44:08;12.83;;;8.30;;
75261;SDS011;63859;51.064;4.580;2023-04-30T02:46:34;15.33;;;8.27;;
75261;SDS011;63859;51.064;4.580;2023-04-30T02:48:59;11.90;;;7.83;;
75261;SDS011;63859;51.064;4.580;2023-04-30T02:51:25;14.97;;;7.97;;
75261;SDS011;63859;51.064;4.580;2023-04-30T02:53:52;11.87;;;8.00;;
75261;SDS011;63859;51.064;4.580;2023-04-30T02:56:18;14.27;;;8.57;;
75261;SDS011;63859;51.064;4.580;2023-04-30T02:58:44;16.97;;;8.27;;
75261;SDS011;63859;51.064;4.580;2023-04-30T03:01:09;14.87;;;8.70;;
75261;SDS011;63859;51.064;4.580;2023-04-30T03:03:35;14.97;;;8.40;;
75261;SDS011;63859;51.064;4.580;2023-04-30T03:06:00;16.07;;;8.33;;
75261;SDS011;63859;51.064;4.580;2023-04-30T03:08:26;14.67;;;8.43;;
75261;SDS011;63859;51.064;4.580;2023-04-30T03:10:52;13.87;;;8.97;;
75261;SDS011;63859;51.064;4.580;2023-04-30T03:13:18;16.13;;;8.67;;
75261;SDS011;63859;51.064;4.580;2023-04-30T03:15:44;15.17;;;9.37;;
75261;SDS011;63859;51.064;4.580;2023-04-30T03:18:09;18.50;;;8.97;;
75261;SDS011;63859;51.064;4.580;2023-04-30T03:20:35;14.17;;;9.77;;
75261;SDS011;63859;51.064;4.580;2023-04-30T03:23:01;21.27;;;9.53;;
75261;SDS011;63859;51.064;4.580;2023-04-30T03:25:27;15.77;;;9.33;;
75261;SDS011;63859;51.064;4.580;2023-04-30T03:27:53;15.87;;;9.17;;
75261;SDS011;63859;51.064;4.580;2023-04-30T03:30:18;16.10;;;9.43;;
75261;SDS011;63859;51.064;4.580;2023-04-30T03:32:44;16.13;;;9.80;;
75261;SDS011;63859;51.064;4.580;2023-04-30T03:35:10;17.83;;;10.13;;
75261;SDS011;63859;51.064;4.580;2023-04-30T03:37:35;17.17;;;10.20;;
75261;SDS011;63859;51.064;4.580;2023-04-30T03:40:01;13.97;;;9.50;;
75261;SDS011;63859;51.064;4.580;2023-04-30T03:42:27;17.77;;;9.80;;
75261;SDS011;63859;51.064;4.580;2023-04-30T03:44:53;18.03;;;9.83;;
75261;SDS011;63859;51.064;4.580;2023-04-30T03:47:18;18.03;;;10.07;;
75261;SDS011;63859;51.064;4.580;2023-04-30T03:49:44;17.13;;;10.43;;
75261;SDS011;63859;51.064;4.580;2023-04-30T03:52:10;18.20;;;9.67;;
75261;SDS011;63859;51.064;4.580;2023-04-30T03:54:36;18.13;;;10.40;;
75261;SDS011;63859;51.064;4.580;2023-04-30T03:57:02;14.70;;;9.53;;
75261;SDS011;63859;51.064;4.580;2023-04-30T03:59:29;16.23;;;10.30;;
75261;SDS011;63859;51.064;4.580;2023-04-30T04:01:55;19.73;;;10.60;;
75261;SDS011;63859;51.064;4.580;2023-04-30T04:04:21;15.70;;;10.00;;
75261;SDS011;63859;51.064;4.580;2023-04-30T04:06:47;15.87;;;9.80;;
75261;SDS011;63859;51.064;4.580;2023-04-30T04:09:12;17.47;;;10.10;;
75261;SDS011;63859;51.064;4.580;2023-04-30T04:11:38;14.80;;;10.07;;
75261;SDS011;63859;51.064;4.580;2023-04-30T04:14:04;17.00;;;10.17;;
75261;SDS011;63859;51.064;4.580;2023-04-30T04:16:29;19.10;;;10.73;;
75261;SDS011;63859;51.064;4.580;2023-04-30T04:18:55;16.37;;;10.57;;
75261;SDS011;63859;51.064;4.580;2023-04-30T04:21:20;20.67;;;10.73;;
75261;SDS011;63859;51.064;4.580;2023-04-30T04:23:46;18.77;;;10.40;;
75261;SDS011;63859;51.064;4.580;2023-04-30T04:26:12;16.00;;;10.57;;
75261;SDS011;63859;51.064;4.580;2023-04-30T04:28:38;17.57;;;11.20;;
75261;SDS011;63859;51.064;4.580;2023-04-30T04:31:05;22.00;;;11.37;;
75261;SDS011;63859;51.064;4.580;2023-04-30T04:33:31;20.33;;;11.37;;
75261;SDS011;63859;51.064;4.580;2023-04-30T04:35:57;21.37;;;11.73;;
75261;SDS011;63859;51.064;4.580;2023-04-30T04:38:24;19.40;;;11.83;;
75261;SDS011;63859;51.064;4.580;2023-04-30T04:40:53;20.40;;;12.10;;
75261;SDS011;63859;51.064;4.580;2023-04-30T04:43:19;19.10;;;11.20;;
75261;SDS011;63859;51.064;4.580;2023-04-30T04:45:44;19.83;;;11.63;;
75261;SDS011;63859;51.064;4.580;2023-04-30T04:48:11;20.13;;;12.20;;
75261;SDS011;63859;51.064;4.580;2023-04-30T04:50:37;22.23;;;11.83;;
75261;SDS011;63859;51.064;4.580;2023-04-30T04:53:03;20.00;;;12.53;;
75261;SDS011;63859;51.064;4.580;2023-04-30T04:55:29;21.17;;;12.40;;
75261;SDS011;63859;51.064;4.580;2023-04-30T04:57:55;21.07;;;12.93;;
75261;SDS011;63859;51.064;4.580;2023-04-30T05:00:21;19.87;;;11.93;;
75261;SDS011;63859;51.064;4.580;2023-04-30T05:02:47;21.27;;;12.23;;
75261;SDS011;63859;51.064;4.580;2023-04-30T05:05:14;23.37;;;13.10;;
75261;SDS011;63859;51.064;4.580;2023-04-30T05:07:39;19.57;;;11.40;;
75261;SDS011;63859;51.064;4.580;2023-04-30T05:10:06;22.00;;;13.00;;
75261;SDS011;63859;51.064;4.580;2023-04-30T05:12:32;22.20;;;12.70;;
75261;SDS011;63859;51.064;4.580;2023-04-30T05:14:58;19.40;;;12.03;;
75261;SDS011;63859;51.064;4.580;2023-04-30T05:17:23;23.63;;;12.73;;
75261;SDS011;63859;51.064;4.580;2023-04-30T05:19:50;24.27;;;12.63;;
75261;SDS011;63859;51.064;4.580;2023-04-30T05:22:15;20.27;;;12.23;;
75261;SDS011;63859;51.064;4.580;2023-04-30T05:24:41;22.87;;;12.73;;
75261;SDS011;63859;51.064;4.580;2023-04-30T05:27:07;19.90;;;12.57;;
75261;SDS011;63859;51.064;4.580;2023-04-30T05:29:33;23.20;;;12.97;;
75261;SDS011;63859;51.064;4.580;2023-04-30T05:31:59;22.93;;;13.30;;
75261;SDS011;63859;51.064;4.580;2023-04-30T05:34:25;24.80;;;14.20;;
75261;SDS011;63859;51.064;4.580;2023-04-30T05:36:51;24.10;;;14.13;;
75261;SDS011;63859;51.064;4.580;2023-04-30T05:39:17;23.40;;;13.63;;
75261;SDS011;63859;51.064;4.580;2023-04-30T05:41:42;29.70;;;14.77;;
75261;SDS011;63859;51.064;4.580;2023-04-30T05:44:08;22.20;;;14.30;;
75261;SDS011;63859;51.064;4.580;2023-04-30T05:46:34;22.40;;;14.47;;
75261;SDS011;63859;51.064;4.580;2023-04-30T05:49:00;22.53;;;14.60;;
75261;SDS011;63859;51.064;4.580;2023-04-30T05:51:26;25.00;;;13.97;;
75261;SDS011;63859;51.064;4.580;2023-04-30T05:53:52;25.83;;;14.57;;
75261;SDS011;63859;51.064;4.580;2023-04-30T05:56:18;27.93;;;15.10;;
75261;SDS011;63859;51.064;4.580;2023-04-30T05:58:44;23.37;;;15.03;;
75261;SDS011;63859;51.064;4.580;2023-04-30T06:01:11;24.93;;;14.97;;
75261;SDS011;63859;51.064;4.580;2023-04-30T06:03:36;23.37;;;14.10;;
75261;SDS011;63859;51.064;4.580;2023-04-30T06:06:02;28.10;;;15.10;;
75261;SDS011;63859;51.064;4.580;2023-04-30T06:08:28;22.80;;;14.70;;
75261;SDS011;63859;51.064;4.580;2023-04-30T06:10:54;27.43;;;15.63;;
75261;SDS011;63859;51.064;4.580;2023-04-30T06:13:20;25.57;;;15.60;;
75261;SDS011;63859;51.064;4.580;2023-04-30T06:15:46;26.93;;;15.63;;
75261;SDS011;63859;51.064;4.580;2023-04-30T06:18:12;28.87;;;16.60;;
75261;SDS011;63859;51.064;4.580;2023-04-30T06:20:38;27.87;;;16.33;;
75261;SDS011;63859;51.064;4.580;2023-04-30T06:23:04;27.27;;;16.57;;
75261;SDS011;63859;51.064;4.580;2023-04-30T06:25:30;27.80;;;16.43;;
75261;SDS011;63859;51.064;4.580;2023-04-30T06:27:56;27.53;;;16.17;;
75261;SDS011;63859;51.064;4.580;2023-04-30T06:30:21;27.17;;;16.90;;
75261;SDS011;63859;51.064;4.580;2023-04-30T06:32:47;25.03;;;17.27;;
75261;SDS011;63859;51.064;4.580;2023-04-30T06:35:13;33.00;;;17.13;;
75261;SDS011;63859;51.064;4.580;2023-04-30T06:37:38;26.90;;;17.13;;
75261;SDS011;63859;51.064;4.580;2023-04-30T06:40:04;26.47;;;16.57;;
75261;SDS011;63859;51.064;4.580;2023-04-30T06:42:31;26.97;;;16.50;;
75261;SDS011;63859;51.064;4.580;2023-04-30T06:45:02;26.20;;;16.60;;
75261;SDS011;63859;51.064;4.580;2023-04-30T06:47:29;26.30;;;15.63;;
75261;SDS011;63859;51.064;4.580;2023-04-30T06:49:59;27.20;;;16.20;;
75261;SDS011;63859;51.064;4.580;2023-04-30T06:52:25;25.07;;;16.23;;
75261;SDS011;63859;51.064;4.580;2023-04-30T06:54:51;26.80;;;16.60;;
75261;SDS011;63859;51.064;4.580;2023-04-30T06:57:16;29.83;;;17.17;;
75261;SDS011;63859;51.064;4.580;2023-04-30T06:59:42;26.63;;;16.47;;
75261;SDS011;63859;51.064;4.580;2023-04-30T07:02:08;26.43;;;16.43;;
75261;SDS011;63859;51.064;4.580;2023-04-30T07:04:34;24.97;;;15.57;;
75261;SDS011;63859;51.064;4.580;2023-04-30T07:07:00;28.03;;;16.60;;
75261;SDS011;63859;51.064;4.580;2023-04-30T07:09:26;27.60;;;16.13;;
75261;SDS011;63859;51.064;4.580;2023-04-30T07:11:56;25.57;;;16.00;;
75261;SDS011;63859;51.064;4.580;2023-04-30T07:14:22;22.10;;;15.97;;
75261;SDS011;63859;51.064;4.580;2023-04-30T07:16:48;26.73;;;16.60;;
75261;SDS011;63859;51.064;4.580;2023-04-30T07:19:15;28.13;;;16.60;;
75261;SDS011;63859;51.064;4.580;2023-04-30T07:21:40;23.97;;;16.03;;
75261;SDS011;63859;51.064;4.580;2023-04-30T07:24:06;27.50;;;16.03;;
75261;SDS011;63859;51.064;4.580;2023-04-30T07:26:32;25.77;;;16.23;;
75261;SDS011;63859;51.064;4.580;2023-04-30T07:28:58;26.07;;;17.33;;
75261;SDS011;63859;51.064;4.580;2023-04-30T07:31:23;28.33;;;16.27;;
75261;SDS011;63859;51.064;4.580;2023-04-30T07:33:50;29.13;;;16.03;;
75261;SDS011;63859;51.064;4.580;2023-04-30T07:36:16;29.33;;;16.63;;
75261;SDS011;63859;51.064;4.580;2023-04-30T07:38:42;27.70;;;16.90;;
75261;SDS011;63859;51.064;4.580;2023-04-30T07:41:07;27.37;;;17.30;;
75261;SDS011;63859;51.064;4.580;2023-04-30T07:43:34;25.53;;;16.50;;
75261;SDS011;63859;51.064;4.580;2023-04-30T07:46:00;25.80;;;17.33;;
75261;SDS011;63859;51.064;4.580;2023-04-30T07:48:26;25.30;;;16.57;;
75261;SDS011;63859;51.064;4.580;2023-04-30T07:50:52;31.37;;;16.67;;
75261;SDS011;63859;51.064;4.580;2023-04-30T07:53:17;26.50;;;17.17;;
75261;SDS011;63859;51.064;4.580;2023-04-30T07:55:43;25.13;;;16.90;;
75261;SDS011;63859;51.064;4.580;2023-04-30T07:58:09;26.00;;;17.43;;
75261;SDS011;63859;51.064;4.580;2023-04-30T08:00:34;27.10;;;16.57;;
75261;SDS011;63859;51.064;4.580;2023-04-30T08:03:00;27.13;;;16.90;;
75261;SDS011;63859;51.064;4.580;2023-04-30T08:05:26;28.70;;;16.47;;
75261;SDS011;63859;51.064;4.580;2023-04-30T08:07:52;27.60;;;16.23;;
75261;SDS011;63859;51.064;4.580;2023-04-30T08:10:17;25.70;;;15.87;;
75261;SDS011;63859;51.064;4.580;2023-04-30T08:12:43;27.23;;;16.07;;
75261;SDS011;63859;51.064;4.580;2023-04-30T08:15:09;26.80;;;16.27;;
75261;SDS011;63859;51.064;4.580;2023-04-30T08:17:35;23.93;;;15.90;;
75261;SDS011;63859;51.064;4.580;2023-04-30T08:20:02;23.80;;;16.48;;
75261;SDS011;63859;51.064;4.580;2023-04-30T08:22:28;24.70;;;16.42;;
75261;SDS011;63859;51.064;4.580;2023-04-30T08:24:54;23.20;;;15.90;;
75261;SDS011;63859;51.064;4.580;2023-04-30T08:27:20;23.53;;;14.77;;
75261;SDS011;63859;51.064;4.580;2023-04-30T08:29:47;26.05;;;15.73;;
75261;SDS011;63859;51.064;4.580;2023-04-30T08:32:12;28.40;;;15.55;;
75261;SDS011;63859;51.064;4.580;2023-04-30T08:34:38;22.20;;;15.40;;
75261;SDS011;63859;51.064;4.580;2023-04-30T08:37:07;23.63;;;15.75;;
75261;SDS011;63859;51.064;4.580;2023-04-30T08:39:33;24.05;;;14.82;;
75261;SDS011;63859;51.064;4.580;2023-04-30T08:42:00;29.15;;;15.23;;
75261;SDS011;63859;51.064;4.580;2023-04-30T08:44:28;24.80;;;14.27;;
75261;SDS011;63859;51.064;4.580;2023-04-30T08:46:55;22.23;;;13.52;;
75261;SDS011;63859;51.064;4.580;2023-04-30T08:49:24;21.13;;;14.48;;
75261;SDS011;63859;51.064;4.580;2023-04-30T08:51:50;22.73;;;13.77;;
75261;SDS011;63859;51.064;4.580;2023-04-30T08:54:16;24.85;;;13.77;;
75261;SDS011;63859;51.064;4.580;2023-04-30T08:56:45;22.38;;;13.90;;
75261;SDS011;63859;51.064;4.580;2023-04-30T08:59:12;22.52;;;13.77;;
75261;SDS011;63859;51.064;4.580;2023-04-30T09:01:38;21.38;;;12.90;;
75261;SDS011;63859;51.064;4.580;2023-04-30T09:04:04;20.55;;;12.77;;
75261;SDS011;63859;51.064;4.580;2023-04-30T09:06:30;18.90;;;13.13;;
75261;SDS011;63859;51.064;4.580;2023-04-30T09:08:56;19.70;;;12.85;;
75261;SDS011;63859;51.064;4.580;2023-04-30T09:11:22;18.50;;;11.93;;
75261;SDS011;63859;51.064;4.580;2023-04-30T09:13:55;19.38;;;12.63;;
75261;SDS011;63859;51.064;4.580;2023-04-30T09:16:22;21.83;;;13.13;;
75261;SDS011;63859;51.064;4.580;2023-04-30T09:18:49;18.88;;;11.60;;
75261;SDS011;63859;51.064;4.580;2023-04-30T09:21:15;16.67;;;10.98;;
75261;SDS011;63859;51.064;4.580;2023-04-30T09:24:02;16.10;;;10.90;;
75261;SDS011;63859;51.064;4.580;2023-04-30T09:26:32;19.55;;;10.00;;
75261;SDS011;63859;51.064;4.580;2023-04-30T09:29:02;17.63;;;10.63;;
75261;SDS011;63859;51.064;4.580;2023-04-30T09:31:32;16.42;;;10.60;;
75261;SDS011;63859;51.064;4.580;2023-04-30T09:33:59;12.90;;;9.85;;
75261;SDS011;63859;51.064;4.580;2023-04-30T09:36:25;15.32;;;9.70;;
75261;SDS011;63859;51.064;4.580;2023-04-30T09:38:52;15.60;;;9.90;;
75261;SDS011;63859;51.064;4.580;2023-04-30T09:41:24;15.48;;;9.75;;
75261;SDS011;63859;51.064;4.580;2023-04-30T09:43:52;19.50;;;11.02;;
75261;SDS011;63859;51.064;4.580;2023-04-30T09:46:19;15.85;;;9.38;;
75261;SDS011;63859;51.064;4.580;2023-04-30T09:48:45;13.80;;;8.77;;
75261;SDS011;63859;51.064;4.580;2023-04-30T09:51:13;15.43;;;9.48;;
75261;SDS011;63859;51.064;4.580;2023-04-30T09:53:42;13.80;;;9.48;;
75261;SDS011;63859;51.064;4.580;2023-04-30T09:56:08;15.90;;;9.45;;
75261;SDS011;63859;51.064;4.580;2023-04-30T09:58:37;13.85;;;9.10;;
75261;SDS011;63859;51.064;4.580;2023-04-30T10:01:04;13.93;;;9.50;;
75261;SDS011;63859;51.064;4.580;2023-04-30T10:03:34;11.80;;;8.35;;
75261;SDS011;63859;51.064;4.580;2023-04-30T10:06:03;17.65;;;9.07;;
75261;SDS011;63859;51.064;4.580;2023-04-30T10:08:33;14.68;;;8.40;;
75261;SDS011;63859;51.064;4.580;2023-04-30T10:11:05;12.85;;;9.05;;
75261;SDS011;63859;51.064;4.580;2023-04-30T10:13:34;12.60;;;8.20;;
75261;SDS011;63859;51.064;4.580;2023-04-30T10:16:07;14.75;;;8.27;;
75261;SDS011;63859;51.064;4.580;2023-04-30T10:18:42;12.13;;;7.30;;
75261;SDS011;63859;51.064;4.580;2023-04-30T10:21:13;9.82;;;6.65;;
75261;SDS011;63859;51.064;4.580;2023-04-30T10:23:41;9.57;;;6.40;;
75261;SDS011;63859;51.064;4.580;2023-04-30T10:26:11;8.68;;;6.43;;
75261;SDS011;63859;51.064;4.580;2023-04-30T10:28:38;7.60;;;4.88;;
75261;SDS011;63859;51.064;4.580;2023-04-30T10:31:05;7.57;;;4.82;;
75261;SDS011;63859;51.064;4.580;2023-04-30T10:36:04;5.68;;;4.53;;
75261;SDS011;63859;51.064;4.580;2023-04-30T10:38:33;8.40;;;4.75;;
75261;SDS011;63859;51.064;4.580;2023-04-30T10:41:00;7.80;;;4.85;;
75261;SDS011;63859;51.064;4.580;2023-04-30T10:43:28;10.18;;;4.75;;
75261;SDS011;63859;51.064;4.580;2023-04-30T10:45:58;8.10;;;5.05;;
75261;SDS011;63859;51.064;4.580;2023-04-30T10:48:24;6.13;;;4.30;;
75261;SDS011;63859;51.064;4.580;2023-04-30T10:50:51;6.70;;;4.95;;
75261;SDS011;63859;51.064;4.580;2023-04-30T10:53:19;6.32;;;4.80;;
75261;SDS011;63859;51.064;4.580;2023-04-30T10:58:39;9.52;;;5.22;;
75261;SDS011;63859;51.064;4.580;2023-04-30T11:01:06;8.50;;;4.30;;
75261;SDS011;63859;51.064;4.580;2023-04-30T11:03:40;5.72;;;3.63;;
75261;SDS011;63859;51.064;4.580;2023-04-30T11:06:16;4.45;;;3.30;;
75261;SDS011;63859;51.064;4.580;2023-04-30T11:08:45;6.57;;;3.60;;
75261;SDS011;63859;51.064;4.580;2023-04-30T11:11:11;8.23;;;4.28;;
75261;SDS011;63859;51.064;4.580;2023-04-30T11:13:45;5.43;;;4.03;;
75261;SDS011;63859;51.064;4.580;2023-04-30T11:16:12;5.10;;;3.47;;
75261;SDS011;63859;51.064;4.580;2023-04-30T11:18:43;5.20;;;3.25;;
75261;SDS011;63859;51.064;4.580;2023-04-30T11:21:10;6.22;;;3.95;;
75261;SDS011;63859;51.064;4.580;2023-04-30T11:23:39;7.45;;;3.88;;
75261;SDS011;63859;51.064;4.580;2023-04-30T11:26:07;8.07;;;3.65;;
75261;SDS011;63859;51.064;4.580;2023-04-30T11:28:33;11.23;;;3.63;;
75261;SDS011;63859;51.064;4.580;2023-04-30T11:31:00;6.40;;;3.22;;
75261;SDS011;63859;51.064;4.580;2023-04-30T11:33:27;5.25;;;2.95;;
75261;SDS011;63859;51.064;4.580;2023-04-30T11:35:54;6.93;;;5.40;;
75261;SDS011;63859;51.064;4.580;2023-04-30T11:38:21;3.08;;;2.53;;
75261;SDS011;63859;51.064;4.580;2023-04-30T11:41:00;5.93;;;3.50;;
75261;SDS011;63859;51.064;4.580;2023-04-30T11:43:27;5.20;;;3.45;;
75261;SDS011;63859;51.064;4.580;2023-04-30T11:46:10;4.50;;;2.88;;
75261;SDS011;63859;51.064;4.580;2023-04-30T11:48:42;3.50;;;2.67;;
75261;SDS011;63859;51.064;4.580;2023-04-30T11:51:22;7.13;;;3.08;;
75261;SDS011;63859;51.064;4.580;2023-04-30T11:53:49;6.38;;;3.22;;
75261;SDS011;63859;51.064;4.580;2023-04-30T11:56:16;4.55;;;3.03;;
75261;SDS011;63859;51.064;4.580;2023-04-30T11:58:48;3.88;;;2.80;;
75261;SDS011;63859;51.064;4.580;2023-04-30T12:01:17;4.25;;;2.92;;
75261;SDS011;63859;51.064;4.580;2023-04-30T12:03:47;6.28;;;3.30;;
75261;SDS011;63859;51.064;4.580;2023-04-30T12:06:21;7.45;;;2.75;;
75261;SDS011;63859;51.064;4.580;2023-04-30T12:08:48;8.35;;;3.13;;
75261;SDS011;63859;51.064;4.580;2023-04-30T12:11:20;5.90;;;2.75;;
75261;SDS011;63859;51.064;4.580;2023-04-30T12:14:23;3.13;;;2.70;;
75261;SDS011;63859;51.064;4.580;2023-04-30T12:16:47;3.67;;;2.67;;
75261;SDS011;63859;51.064;4.580;2023-04-30T12:19:15;4.95;;;2.70;;
75261;SDS011;63859;51.064;4.580;2023-04-30T12:21:45;3.95;;;3.25;;
75261;SDS011;63859;51.064;4.580;2023-04-30T12:24:12;3.40;;;2.72;;
75261;SDS011;63859;51.064;4.580;2023-04-30T12:26:39;6.00;;;2.50;;
75261;SDS011;63859;51.064;4.580;2023-04-30T12:29:15;4.20;;;3.00;;
75261;SDS011;63859;51.064;4.580;2023-04-30T12:31:43;4.60;;;2.40;;
75261;SDS011;63859;51.064;4.580;2023-04-30T12:34:11;4.05;;;2.90;;
75261;SDS011;63859;51.064;4.580;2023-04-30T12:36:38;5.22;;;2.60;;
75261;SDS011;63859;51.064;4.580;2023-04-30T12:39:09;4.43;;;2.60;;
75261;SDS011;63859;51.064;4.580;2023-04-30T12:41:38;11.48;;;3.38;;
75261;SDS011;63859;51.064;4.580;2023-04-30T12:46:52;4.25;;;2.20;;
75261;SDS011;63859;51.064;4.580;2023-04-30T12:49:32;5.22;;;2.47;;
75261;SDS011;63859;51.064;4.580;2023-04-30T12:54:28;6.53;;;3.30;;
75261;SDS011;63859;51.064;4.580;2023-04-30T12:56:57;4.75;;;2.05;;
75261;SDS011;63859;51.064;4.580;2023-04-30T12:59:27;2.70;;;2.17;;
75261;SDS011;63859;51.064;4.580;2023-04-30T13:01:54;2.55;;;1.70;;
75261;SDS011;63859;51.064;4.580;2023-04-30T13:04:20;2.63;;;2.00;;
75261;SDS011;63859;51.064;4.580;2023-04-30T13:06:46;5.40;;;2.08;;
75261;SDS011;63859;51.064;4.580;2023-04-30T13:09:11;3.90;;;3.00;;
75261;SDS011;63859;51.064;4.580;2023-04-30T13:11:37;6.20;;;2.30;;
75261;SDS011;63859;51.064;4.580;2023-04-30T13:14:03;2.15;;;1.95;;
75261;SDS011;63859;51.064;4.580;2023-04-30T13:16:29;4.53;;;2.20;;
75261;SDS011;63859;51.064;4.580;2023-04-30T13:18:55;10.45;;;3.08;;
75261;SDS011;63859;51.064;4.580;2023-04-30T13:21:21;9.00;;;3.03;;
75261;SDS011;63859;51.064;4.580;2023-04-30T13:23:48;2.78;;;1.90;;
75261;SDS011;63859;51.064;4.580;2023-04-30T13:26:14;3.08;;;2.38;;
75261;SDS011;63859;51.064;4.580;2023-04-30T13:28:40;3.15;;;2.53;;
75261;SDS011;63859;51.064;4.580;2023-04-30T13:31:06;8.98;;;2.30;;
75261;SDS011;63859;51.064;4.580;2023-04-30T13:33:31;3.95;;;2.08;;
75261;SDS011;63859;51.064;4.580;2023-04-30T13:35:57;2.00;;;1.80;;
75261;SDS011;63859;51.064;4.580;2023-04-30T13:38:22;2.85;;;1.77;;
75261;SDS011;63859;51.064;4.580;2023-04-30T13:40:48;4.93;;;1.98;;
75261;SDS011;63859;51.064;4.580;2023-04-30T13:43:14;2.38;;;1.52;;
75261;SDS011;63859;51.064;4.580;2023-04-30T13:45:39;2.75;;;1.90;;
75261;SDS011;63859;51.064;4.580;2023-04-30T13:48:05;3.42;;;1.88;;
75261;SDS011;63859;51.064;4.580;2023-04-30T13:50:31;2.00;;;1.80;;
75261;SDS011;63859;51.064;4.580;2023-04-30T13:52:57;3.63;;;1.90;;
75261;SDS011;63859;51.064;4.580;2023-04-30T13:55:23;3.25;;;1.55;;
75261;SDS011;63859;51.064;4.580;2023-04-30T13:57:49;2.67;;;2.28;;
75261;SDS011;63859;51.064;4.580;2023-04-30T14:00:15;2.92;;;2.00;;
75261;SDS011;63859;51.064;4.580;2023-04-30T14:02:41;3.25;;;2.30;;
75261;SDS011;63859;51.064;4.580;2023-04-30T14:05:06;3.00;;;1.85;;
75261;SDS011;63859;51.064;4.580;2023-04-30T14:07:32;9.98;;;2.30;;
75261;SDS011;63859;51.064;4.580;2023-04-30T14:09:59;4.40;;;2.33;;
75261;SDS011;63859;51.064;4.580;2023-04-30T14:12:24;7.20;;;2.10;;
75261;SDS011;63859;51.064;4.580;2023-04-30T14:14:50;4.32;;;2.10;;
75261;SDS011;63859;51.064;4.580;2023-04-30T14:17:16;3.55;;;1.98;;
75261;SDS011;63859;51.064;4.580;2023-04-30T14:19:42;2.00;;;1.80;;
75261;SDS011;63859;51.064;4.580;2023-04-30T14:22:07;2.47;;;1.80;;
75261;SDS011;63859;51.064;4.580;2023-04-30T14:24:33;2.70;;;1.88;;
75261;SDS011;63859;51.064;4.580;2023-04-30T14:27:00;3.28;;;1.83;;
75261;SDS011;63859;51.064;4.580;2023-04-30T14:29:27;2.95;;;2.20;;
75261;SDS011;63859;51.064;4.580;2023-04-30T14:31:53;2.40;;;1.88;;
75261;SDS011;63859;51.064;4.580;2023-04-30T14:34:19;2.17;;;1.98;;
75261;SDS011;63859;51.064;4.580;2023-04-30T14:36:44;4.82;;;2.10;;
75261;SDS011;63859;51.064;4.580;2023-04-30T14:39:10;9.60;;;2.20;;
75261;SDS011;63859;51.064;4.580;2023-04-30T14:41:36;20.50;;;3.03;;
75261;SDS011;63859;51.064;4.580;2023-04-30T14:44:02;3.97;;;2.28;;
75261;SDS011;63859;51.064;4.580;2023-04-30T14:46:28;2.53;;;1.90;;
75261;SDS011;63859;51.064;4.580;2023-04-30T14:48:55;2.58;;;2.00;;
75261;SDS011;63859;51.064;4.580;2023-04-30T14:51:21;3.22;;;1.90;;
75261;SDS011;63859;51.064;4.580;2023-04-30T14:53:47;3.53;;;2.15;;
75261;SDS011;63859;51.064;4.580;2023-04-30T14:56:12;3.30;;;1.77;;
75261;SDS011;63859;51.064;4.580;2023-04-30T14:58:38;5.35;;;2.35;;
75261;SDS011;63859;51.064;4.580;2023-04-30T15:01:04;4.50;;;2.25;;
75261;SDS011;63859;51.064;4.580;2023-04-30T15:03:29;2.53;;;2.33;;
75261;SDS011;63859;51.064;4.580;2023-04-30T15:05:55;3.63;;;2.50;;
75261;SDS011;63859;51.064;4.580;2023-04-30T15:08:22;2.78;;;2.28;;